createdAt,value
2022-09-20T00:01:34.223Z,85.96
2022-09-20T00:04:06.902Z,86.15
2022-09-20T00:06:36.861Z,85.86
2022-09-20T00:09:06.594Z,86.01
2022-09-20T00:11:37.833Z,85.85
2022-09-20T00:14:09.446Z,85.88
2022-09-20T00:16:40.893Z,86.01
2022-09-20T00:19:10.406Z,85.97
2022-09-20T00:21:40.143Z,86.05
2022-09-20T00:24:08.627Z,86.03
2022-09-20T00:26:37.078Z,85.87
2022-09-20T00:29:06.594Z,85.86
2022-09-20T00:31:35.737Z,86.09
2022-09-20T00:34:21.778Z,85.92
2022-09-20T00:36:51.507Z,85.92
2022-09-20T00:39:19.856Z,86.11
2022-09-20T00:41:48.251Z,86.17
2022-09-20T00:44:47.718Z,85.98
2022-09-20T00:47:28.434Z,85.98
2022-09-20T00:50:06.715Z,85.99
2022-09-20T00:52:38.255Z,85.97
2022-09-20T00:55:09.861Z,85.90
2022-09-20T00:57:39.276Z,85.98
2022-09-20T01:00:12.583Z,86.13
2022-09-20T01:02:46.954Z,86.07
2022-09-20T01:05:16.863Z,86.07
2022-09-20T01:07:49.380Z,86.14
2022-09-20T01:10:17.816Z,86.11
2022-09-20T01:12:47.901Z,86.21
2022-09-20T01:15:17.031Z,86.32
2022-09-20T01:17:51.425Z,86.26
2022-09-20T01:20:24.546Z,86.00
2022-09-20T01:23:44.962Z,85.99
2022-09-20T01:27:00.864Z,86.09
2022-09-20T01:30:02.485Z,86.18
2022-09-20T01:32:47.094Z,86.08
2022-09-20T01:35:19.272Z,86.28
2022-09-20T01:38:03.363Z,86.30
2022-09-20T01:40:40.518Z,86.37
2022-09-20T01:43:19.388Z,86.17
2022-09-20T01:45:50.708Z,86.40
2022-09-20T01:48:32.401Z,86.27
2022-09-20T01:51:37.645Z,86.10
2022-09-20T01:54:52.286Z,86.38
2022-09-20T01:58:04.990Z,86.28
2022-09-20T02:00:40.069Z,86.45
2022-09-20T02:04:05.286Z,86.29
2022-09-20T02:07:09.746Z,86.41
2022-09-20T02:10:32.162Z,86.42
2022-09-20T02:13:04.210Z,86.40
2022-09-20T02:16:12.242Z,86.33
2022-09-20T02:19:08.100Z,86.46
2022-09-20T02:21:45.583Z,86.47
2022-09-20T02:24:29.450Z,86.31
2022-09-20T02:27:13.302Z,86.34
2022-09-20T02:29:50.607Z,86.44
2022-09-20T02:32:33.309Z,86.42
2022-09-20T02:35:17.917Z,86.38
2022-09-20T02:38:04.224Z,86.38
2022-09-20T02:41:01.956Z,86.30
2022-09-20T02:43:41.521Z,86.44
2022-09-20T02:46:19.168Z,86.55
2022-09-20T02:48:55.841Z,86.48
2022-09-20T02:51:34.193Z,86.44
2022-09-20T02:54:14.008Z,86.43
2022-09-20T02:56:53.336Z,86.53
2022-09-20T02:59:33.462Z,86.54
2022-09-20T03:02:16.250Z,86.50
2022-09-20T03:05:03.429Z,86.50
2022-09-20T03:07:43.885Z,86.43
2022-09-20T03:10:21.274Z,86.57
2022-09-20T03:13:23.801Z,86.45
2022-09-20T03:16:06.433Z,86.50
2022-09-20T03:18:50.048Z,86.54
2022-09-20T03:21:37.771Z,86.53
2022-09-20T03:24:19.151Z,86.30
2022-09-20T03:26:56.784Z,86.46
2022-09-20T03:29:47.331Z,86.43
2022-09-20T03:32:35.590Z,86.53
2022-09-20T03:35:29.420Z,86.35
2022-09-20T03:38:20.652Z,86.52
2022-09-20T03:41:23.253Z,86.54
2022-09-20T03:44:11.957Z,86.58
2022-09-20T03:46:46.970Z,86.66
2022-09-20T03:49:48.075Z,86.47
2022-09-20T03:52:40.527Z,86.57
2022-09-20T03:55:54.207Z,86.60
2022-09-20T03:58:41.300Z,86.54
2022-09-20T04:01:33.066Z,86.62
2022-09-20T04:04:12.826Z,86.59
2022-09-20T04:07:02.759Z,86.62
2022-09-20T04:10:02.304Z,86.61
2022-09-20T04:12:44.390Z,86.66
2022-09-20T04:15:28.462Z,86.60
2022-09-20T04:18:04.605Z,86.63
2022-09-20T04:20:44.313Z,86.64
2022-09-20T04:23:25.870Z,86.59
2022-09-20T04:25:54.250Z,86.57
2022-09-20T04:28:30.221Z,86.49
2022-09-20T04:31:11.100Z,86.70
2022-09-20T04:33:49.557Z,86.63
2022-09-20T04:36:56.173Z,86.65
2022-09-20T04:39:39.414Z,86.61
2022-09-20T04:43:02.382Z,86.62
2022-09-20T04:46:31.108Z,86.57
2022-09-20T04:49:53.496Z,86.69
2022-09-20T04:53:22.617Z,86.56
2022-09-20T04:56:01.935Z,86.67
2022-09-20T04:58:49.268Z,86.78
2022-09-20T05:02:15.661Z,86.67
2022-09-20T05:05:35.865Z,86.67
2022-09-20T05:08:51.180Z,86.82
2022-09-20T05:12:01.757Z,86.69
2022-09-20T05:15:08.140Z,86.68
2022-09-20T05:18:15.175Z,86.72
2022-09-20T05:20:53.951Z,86.82
2022-09-20T05:24:02.990Z,86.75
2022-09-20T05:26:46.254Z,86.76
2022-09-20T05:29:21.563Z,86.78
2022-09-20T05:32:00.430Z,86.72
2022-09-20T05:34:42.389Z,86.71
2022-09-20T05:37:25.407Z,86.67
2022-09-20T05:40:06.066Z,86.76
2022-09-20T05:42:44.259Z,86.72
2022-09-20T05:45:35.221Z,86.54
2022-09-20T05:48:14.973Z,86.54
2022-09-20T05:50:55.750Z,86.62
2022-09-20T05:53:51.809Z,86.54
2022-09-20T05:56:42.994Z,86.66
2022-09-20T05:59:28.935Z,86.62
2022-09-20T06:02:18.971Z,86.61
2022-09-20T06:04:59.037Z,86.67
2022-09-20T06:07:43.097Z,86.52
2022-09-20T06:10:31.093Z,86.40
2022-09-20T06:13:12.849Z,86.32
2022-09-20T06:15:49.661Z,86.21
2022-09-20T06:18:28.821Z,86.25
2022-09-20T06:21:12.052Z,86.24
2022-09-20T06:23:40.388Z,86.27
2022-09-20T06:26:17.360Z,86.08
2022-09-20T06:28:54.195Z,86.18
2022-09-20T06:31:24.869Z,86.18
2022-09-20T06:33:58.509Z,86.11
2022-09-20T06:36:49.753Z,86.24
2022-09-20T06:39:46.651Z,86.12
2022-09-20T06:42:14.875Z,86.08
2022-09-20T06:44:44.460Z,86.05
2022-09-20T06:47:14.257Z,86.06
2022-09-20T06:49:46.945Z,86.17
2022-09-20T06:52:17.149Z,85.96
2022-09-20T06:54:46.727Z,85.94
2022-09-20T06:57:18.187Z,85.95
2022-09-20T06:59:47.733Z,86.11
2022-09-20T07:02:15.948Z,85.86
2022-09-20T07:04:45.160Z,85.98
2022-09-20T07:07:23.047Z,85.97
2022-09-20T07:09:54.831Z,85.81
2022-09-20T07:12:23.153Z,86.01
2022-09-20T07:14:52.791Z,85.58
2022-09-20T07:17:22.197Z,85.73
2022-09-20T07:19:50.349Z,85.57
2022-09-20T07:22:18.551Z,85.75
2022-09-20T07:24:47.875Z,85.57
2022-09-20T07:27:16.444Z,85.40
2022-09-20T07:29:46.162Z,85.41
2022-09-20T07:32:17.207Z,85.27
2022-09-20T07:34:45.932Z,85.28
2022-09-20T07:37:14.146Z,84.93
2022-09-20T07:39:42.371Z,84.85
2022-09-20T07:42:10.556Z,85.11
2022-09-20T07:44:42.318Z,85.01
2022-09-20T07:47:14.043Z,84.64
2022-09-20T07:49:43.637Z,84.92
2022-09-20T07:52:12.419Z,84.86
2022-09-20T07:54:40.917Z,84.57
2022-09-20T07:57:09.165Z,84.57
2022-09-20T07:59:37.317Z,84.33
2022-09-20T08:02:05.621Z,84.29
2022-09-20T08:04:33.840Z,84.24
2022-09-20T08:07:03.404Z,83.87
2022-09-20T08:09:31.535Z,84.00
2022-09-20T08:11:59.793Z,83.68
2022-09-20T08:14:28.574Z,83.16
2022-09-20T08:16:58.195Z,83.43
2022-09-20T08:19:26.782Z,83.45
2022-09-20T08:21:55.150Z,82.94
2022-09-20T08:24:26.132Z,82.98
2022-09-20T08:26:54.427Z,82.86
2022-09-20T08:29:22.619Z,82.27
2022-09-20T08:31:52.598Z,82.28
2022-09-20T08:34:21.025Z,82.55
2022-09-20T08:36:51.845Z,82.46
2022-09-20T08:42:24.133Z,82.14
2022-09-20T08:44:58.532Z,81.71
2022-09-20T08:47:31.116Z,81.38
2022-09-20T08:50:00.715Z,81.33
2022-09-20T08:52:37.342Z,81.57
2022-09-20T08:55:16.792Z,81.23
2022-09-20T08:57:50.361Z,80.82
2022-09-20T09:00:21.885Z,80.73
2022-09-20T09:02:53.154Z,80.47
2022-09-20T09:05:34.885Z,80.08
2022-09-20T09:08:10.125Z,79.88
2022-09-20T09:10:44.232Z,79.85
2022-09-20T09:13:26.486Z,79.56
2022-09-20T09:16:01.644Z,79.75
2022-09-20T09:18:36.342Z,79.23
2022-09-20T09:21:07.815Z,78.98
2022-09-20T09:23:43.119Z,78.42
2022-09-20T09:26:22.276Z,77.76
2022-09-20T09:29:19.288Z,78.05
2022-09-20T09:31:50.391Z,78.03
2022-09-20T09:34:27.850Z,77.08
2022-09-20T09:36:57.114Z,77.16
2022-09-20T09:39:27.834Z,76.82
2022-09-20T09:41:57.284Z,76.69
2022-09-20T09:44:28.725Z,76.29
2022-09-20T09:46:58.618Z,75.99
2022-09-20T09:49:29.340Z,75.88
2022-09-20T09:52:12.973Z,75.39
2022-09-20T09:54:44.600Z,75.05
2022-09-20T09:57:34.108Z,74.80
2022-09-20T10:00:19.510Z,74.77
2022-09-20T10:03:22.818Z,74.53
2022-09-20T10:06:08.609Z,74.02
2022-09-20T10:08:54.191Z,74.09
2022-09-20T10:11:38.877Z,73.46
2022-09-20T10:14:24.594Z,73.22
2022-09-20T10:17:10.799Z,73.32
2022-09-20T10:19:59.403Z,73.02
2022-09-20T10:22:38.323Z,72.94
2022-09-20T10:25:23.140Z,72.94
2022-09-20T10:28:09.112Z,72.56
2022-09-20T10:30:52.423Z,72.47
2022-09-20T10:33:32.252Z,72.06
2022-09-20T10:36:21.292Z,71.79
2022-09-20T10:38:58.527Z,71.42
2022-09-20T10:42:03.987Z,70.74
2022-09-20T10:44:55.228Z,71.00
2022-09-20T10:47:31.544Z,70.86
2022-09-20T10:50:14.552Z,70.55
2022-09-20T10:53:02.758Z,69.97
2022-09-20T10:55:42.404Z,71.12
2022-09-20T10:58:51.990Z,70.38
2022-09-20T11:01:31.451Z,70.20
2022-09-20T11:04:50.993Z,69.89
2022-09-20T11:07:32.831Z,69.72
2022-09-20T11:10:08.059Z,69.65
2022-09-20T11:12:42.889Z,69.66
2022-09-20T11:15:24.588Z,69.21
2022-09-20T11:18:06.030Z,68.50
2022-09-20T11:20:44.207Z,68.19
2022-09-20T11:23:19.795Z,68.11
2022-09-20T11:25:52.713Z,68.22
2022-09-20T11:28:27.515Z,68.38
2022-09-20T11:31:05.143Z,67.88
2022-09-20T11:33:41.438Z,67.28
2022-09-20T11:36:16.538Z,67.27
2022-09-20T11:38:53.504Z,67.06
2022-09-20T11:41:27.627Z,67.06
2022-09-20T11:44:01.237Z,66.98
2022-09-20T11:46:34.626Z,66.40
2022-09-20T11:49:11.034Z,66.37
2022-09-20T11:52:15.292Z,65.82
2022-09-20T11:55:19.776Z,66.10
2022-09-20T11:58:00.069Z,66.17
2022-09-20T12:00:35.265Z,65.91
2022-09-20T12:03:06.737Z,65.36
2022-09-20T12:05:39.353Z,65.27
2022-09-20T12:08:19.365Z,64.65
2022-09-20T12:11:01.803Z,64.54
2022-09-20T12:13:30.027Z,64.81
2022-09-20T12:16:03.592Z,64.62
2022-09-20T12:19:03.155Z,64.38
2022-09-20T12:21:31.382Z,64.42
2022-09-20T12:24:22.855Z,64.26
2022-09-20T12:27:02.800Z,64.23
2022-09-20T12:30:16.030Z,63.81
2022-09-20T12:32:59.267Z,63.37
2022-09-20T12:36:15.707Z,63.08
2022-09-20T12:39:03.722Z,63.33
2022-09-20T12:41:52.506Z,63.86
2022-09-20T12:44:36.496Z,64.43
2022-09-20T12:47:08.911Z,64.07
2022-09-20T12:50:09.032Z,63.58
2022-09-20T12:52:56.868Z,63.42
2022-09-20T12:55:52.869Z,63.11
2022-09-20T12:58:38.375Z,63.02
2022-09-20T13:01:38.034Z,62.63
2022-09-20T13:04:57.385Z,62.57
2022-09-20T13:07:50.783Z,62.71
2022-09-20T13:10:29.922Z,62.62
2022-09-20T13:13:06.253Z,62.49
2022-09-20T13:15:35.645Z,61.71
2022-09-20T13:18:08.281Z,61.51
2022-09-20T13:20:36.711Z,61.63
2022-09-20T13:23:06.421Z,61.34
2022-09-20T13:25:40.007Z,61.43
2022-09-20T13:28:21.081Z,61.48
2022-09-20T13:30:49.715Z,61.92
2022-09-20T13:33:24.880Z,61.46
2022-09-20T13:35:59.014Z,61.17
2022-09-20T13:38:32.367Z,61.14
2022-09-20T13:41:09.044Z,60.86
2022-09-20T13:43:41.136Z,61.19
2022-09-20T13:46:12.053Z,61.03
2022-09-20T13:48:42.564Z,60.66
2022-09-20T13:51:19.901Z,60.72
2022-09-20T13:53:48.507Z,60.94
2022-09-20T13:56:23.903Z,61.03
2022-09-20T13:58:53.735Z,61.17
2022-09-20T14:01:28.985Z,61.04
2022-09-20T14:04:06.237Z,61.01
2022-09-20T14:06:34.772Z,61.31
2022-09-20T14:09:11.040Z,61.30
2022-09-20T14:11:41.073Z,61.42
2022-09-20T14:14:12.576Z,61.36
2022-09-20T14:16:45.177Z,61.07
2022-09-20T14:19:16.410Z,60.34
2022-09-20T14:21:45.349Z,61.29
2022-09-20T14:24:31.977Z,60.92
2022-09-20T14:27:23.468Z,60.96
2022-09-20T14:29:53.611Z,61.10
2022-09-20T14:32:44.368Z,61.04
2022-09-20T14:35:21.964Z,61.19
2022-09-20T14:37:53.167Z,60.94
2022-09-20T14:40:25.993Z,60.93
2022-09-20T14:42:57.921Z,60.75
2022-09-20T14:45:31.313Z,60.82
2022-09-20T14:48:10.143Z,60.91
2022-09-20T14:50:43.249Z,60.84
2022-09-20T14:53:27.268Z,61.10
2022-09-20T14:56:11.502Z,61.41
2022-09-20T14:59:20.288Z,61.00
2022-09-20T15:02:02.949Z,61.13
2022-09-20T15:04:33.007Z,60.97
2022-09-20T15:07:06.554Z,61.01
2022-09-20T15:09:35.839Z,60.80
2022-09-20T15:12:06.757Z,60.77
2022-09-20T15:14:37.785Z,60.34
2022-09-20T15:17:07.292Z,60.30
2022-09-20T15:19:35.499Z,60.28
2022-09-20T15:22:05.494Z,60.40
2022-09-20T15:24:33.692Z,60.38
2022-09-20T15:27:01.891Z,60.60
2022-09-20T15:29:30.758Z,60.78
2022-09-20T15:31:58.976Z,60.87
2022-09-20T15:34:27.341Z,60.94
2022-09-20T15:36:55.957Z,61.39
2022-09-20T15:39:25.972Z,61.47
2022-09-20T15:41:54.841Z,61.68
2022-09-20T15:44:23.067Z,61.52
2022-09-20T15:46:53.191Z,62.01
2022-09-20T15:49:22.229Z,62.04
2022-09-20T15:51:50.486Z,62.45
2022-09-20T15:54:18.742Z,62.67
2022-09-20T15:56:48.819Z,62.85
2022-09-20T15:59:17.301Z,63.11
2022-09-20T16:01:48.161Z,63.29
2022-09-20T16:04:19.642Z,63.63
2022-09-20T16:06:49.998Z,63.98
2022-09-20T16:09:19.185Z,63.96
2022-09-20T16:11:49.361Z,64.25
2022-09-20T16:14:17.604Z,64.49
2022-09-20T16:16:45.904Z,64.84
2022-09-20T16:19:20.791Z,64.82
2022-09-20T16:21:57.781Z,65.36
2022-09-20T16:24:29.546Z,65.44
2022-09-20T16:27:00.806Z,65.40
2022-09-20T16:29:30.127Z,65.93
2022-09-20T16:32:00.306Z,65.99
2022-09-20T16:34:31.290Z,66.21
2022-09-20T16:37:01.654Z,66.31
2022-09-20T16:39:31.612Z,66.19
2022-09-20T16:42:05.015Z,66.42
2022-09-20T16:44:34.896Z,66.50
2022-09-20T16:47:03.346Z,66.55
2022-09-20T16:49:31.588Z,66.80
2022-09-20T16:51:59.810Z,67.22
2022-09-20T16:54:31.793Z,67.33
2022-09-20T16:57:02.123Z,67.11
2022-09-20T16:59:30.354Z,67.53
2022-09-20T17:01:58.919Z,67.73
2022-09-20T17:04:27.255Z,67.93
2022-09-20T17:06:55.708Z,68.15
2022-09-20T17:09:23.961Z,68.47
2022-09-20T17:11:52.708Z,68.63
2022-09-20T17:14:22.492Z,68.92
2022-09-20T17:16:51.248Z,69.20
2022-09-20T17:19:22.546Z,69.19
2022-09-20T17:21:52.118Z,69.25
2022-09-20T17:24:22.225Z,69.72
2022-09-20T17:26:51.769Z,70.14
2022-09-20T17:29:22.516Z,70.14
2022-09-20T17:31:55.763Z,70.37
2022-09-20T17:34:25.587Z,70.42
2022-09-20T17:36:55.401Z,70.67
2022-09-20T17:39:24.090Z,70.82
2022-09-20T17:41:52.624Z,71.06
2022-09-20T17:44:22.632Z,71.47
2022-09-20T17:46:54.052Z,71.31
2022-09-20T17:49:24.387Z,71.50
2022-09-20T17:51:55.000Z,71.93
2022-09-20T17:54:24.472Z,71.84
2022-09-20T17:56:55.851Z,72.18
2022-09-20T17:59:25.857Z,72.35
2022-09-20T18:01:55.635Z,72.53
2022-09-20T18:04:25.043Z,72.48
2022-09-20T18:06:55.441Z,72.76
2022-09-20T18:09:27.073Z,72.75
2022-09-20T18:11:56.586Z,72.93
2022-09-20T18:14:28.462Z,73.21
2022-09-20T18:17:00.763Z,73.47
2022-09-20T18:19:32.985Z,73.27
2022-09-20T18:22:02.075Z,73.38
2022-09-20T18:24:31.525Z,73.72
2022-09-20T18:27:00.857Z,73.89
2022-09-20T18:29:36.436Z,73.89
2022-09-20T18:32:04.848Z,73.80
2022-09-20T18:34:34.139Z,74.07
2022-09-20T18:37:04.507Z,74.22
2022-09-20T18:39:34.830Z,74.39
2022-09-20T18:42:04.491Z,74.43
2022-09-20T18:44:34.336Z,74.45
2022-09-20T18:47:03.738Z,74.56
2022-09-20T18:49:32.632Z,74.60
2022-09-20T18:52:00.984Z,74.72
2022-09-20T18:54:30.485Z,74.82
2022-09-20T18:56:59.570Z,74.93
2022-09-20T18:59:29.285Z,75.16
2022-09-20T19:02:17.791Z,75.27
2022-09-20T19:05:17.640Z,75.40
2022-09-20T19:08:14.232Z,75.29
2022-09-20T19:10:50.140Z,75.53
2022-09-20T19:13:32.369Z,75.30
2022-09-20T19:16:23.473Z,75.75
2022-09-20T19:19:16.140Z,75.44
2022-09-20T19:21:51.489Z,75.66
2022-09-20T19:24:48.031Z,75.70
2022-09-20T19:27:16.782Z,75.85
2022-09-20T19:29:46.174Z,75.92
2022-09-20T19:32:21.222Z,76.05
2022-09-20T19:34:55.784Z,76.17
2022-09-20T19:37:36.638Z,76.19
2022-09-20T19:40:29.896Z,76.42
2022-09-20T19:43:10.865Z,76.35
2022-09-20T19:45:47.367Z,76.32
2022-09-20T19:48:24.026Z,76.48
2022-09-20T19:50:55.078Z,76.48
2022-09-20T19:53:28.298Z,76.65
2022-09-20T19:56:03.886Z,76.71
2022-09-20T19:58:33.119Z,76.58
2022-09-20T20:01:02.119Z,76.80
2022-09-20T20:03:31.201Z,77.00
2022-09-20T20:06:08.354Z,76.99
2022-09-20T20:08:45.413Z,77.10
2022-09-20T20:11:27.363Z,77.21
2022-09-20T20:14:07.357Z,77.15
2022-09-20T20:16:51.249Z,77.08
2022-09-20T20:19:58.830Z,77.14
2022-09-20T20:23:05.078Z,77.25
2022-09-20T20:25:42.384Z,77.42
2022-09-20T20:28:10.805Z,77.49
2022-09-20T20:30:38.994Z,77.49
2022-09-20T20:33:07.388Z,77.43
2022-09-20T20:35:37.407Z,77.62
2022-09-20T20:38:10.735Z,77.61
2022-09-20T20:40:39.187Z,77.58
2022-09-20T20:43:07.655Z,77.66
2022-09-20T20:45:35.894Z,77.71
2022-09-20T20:48:04.314Z,77.72
2022-09-20T20:50:33.049Z,77.89
2022-09-20T20:53:01.217Z,77.96
2022-09-20T20:55:31.109Z,78.02
2022-09-20T20:57:59.606Z,78.01
2022-09-20T21:00:29.991Z,77.97
2022-09-20T21:02:59.943Z,78.12
2022-09-20T21:05:29.233Z,78.13
2022-09-20T21:07:57.952Z,78.07
2022-09-20T21:10:26.409Z,78.14
2022-09-20T21:12:56.865Z,78.25
2022-09-20T21:15:25.145Z,78.44
2022-09-20T21:17:54.982Z,78.45
2022-09-20T21:20:23.230Z,78.47
2022-09-20T21:22:51.429Z,78.54
2022-09-20T21:25:19.611Z,78.51
2022-09-20T21:27:47.825Z,78.60
2022-09-20T21:30:17.738Z,78.75
2022-09-20T21:32:45.900Z,78.76
2022-09-20T21:35:14.234Z,78.65
2022-09-20T21:37:45.329Z,78.88
2022-09-20T21:40:13.559Z,78.77
2022-09-20T21:42:41.779Z,78.85
2022-09-20T21:45:11.044Z,78.77
2022-09-20T21:47:40.571Z,78.81
2022-09-20T21:50:10.351Z,78.93
2022-09-20T21:52:38.545Z,79.02
2022-09-20T21:55:10.806Z,79.13
2022-09-20T21:57:39.030Z,79.00
2022-09-20T22:00:09.874Z,79.14
2022-09-20T22:02:38.499Z,79.04
2022-09-20T22:05:09.078Z,79.24
2022-09-20T22:07:37.267Z,79.21
2022-09-20T22:10:06.546Z,79.19
2022-09-20T22:12:34.879Z,79.33
2022-09-20T22:15:03.055Z,79.30
2022-09-20T22:17:31.251Z,79.29
2022-09-20T22:19:59.513Z,79.41
2022-09-20T22:22:30.062Z,79.39
2022-09-20T22:24:58.263Z,79.46
2022-09-20T22:27:26.470Z,79.52
2022-09-20T22:29:54.716Z,79.33
2022-09-20T22:32:22.904Z,79.49
2022-09-20T22:34:51.109Z,79.47
2022-09-20T22:37:19.313Z,79.49
2022-09-20T22:39:48.865Z,79.56
2022-09-20T22:42:17.023Z,79.82
2022-09-20T22:44:45.188Z,79.85
2022-09-20T22:47:13.411Z,79.64
2022-09-20T22:49:43.300Z,79.86
2022-09-20T22:52:11.516Z,79.89
2022-09-20T22:54:39.778Z,79.83
2022-09-20T22:57:09.354Z,79.90
2022-09-20T22:59:37.569Z,79.90
2022-09-20T23:02:05.881Z,79.86
2022-09-20T23:04:34.077Z,79.85
2022-09-20T23:07:02.538Z,79.87
2022-09-20T23:09:30.719Z,79.94
2022-09-20T23:11:58.928Z,79.91
2022-09-20T23:14:28.540Z,80.03
2022-09-20T23:16:56.736Z,80.14
2022-09-20T23:19:25.022Z,80.21
2022-09-20T23:21:53.230Z,80.12
2022-09-20T23:24:21.430Z,80.04
2022-09-20T23:26:49.678Z,80.21
2022-09-20T23:29:18.200Z,80.33
2022-09-20T23:31:48.018Z,80.30
2022-09-20T23:34:17.318Z,80.16
2022-09-20T23:36:46.470Z,80.31
2022-09-20T23:39:15.067Z,80.39
2022-09-20T23:41:48.364Z,80.42
2022-09-20T23:44:18.350Z,80.29
2022-09-20T23:46:47.885Z,80.29
2022-09-20T23:49:16.144Z,80.27
2022-09-20T23:51:44.337Z,80.25
2022-09-20T23:54:12.546Z,80.41
2022-09-20T23:56:42.765Z,80.42
2022-09-20T23:59:10.986Z,80.36
